sensor_id;sensor_type;location;lat;lon;timestamp;P1;durP1;ratioP1;P2;durP2;ratioP2
16792;SDS011;8513;42.662;23.350;2023-04-07T00:01:49;8.50;;;7.80;;
16792;SDS011;8513;42.662;23.350;2023-04-07T00:04:14;10.17;;;8.03;;
16792;SDS011;8513;42.662;23.350;2023-04-07T00:06:40;10.00;;;8.37;;
16792;SDS011;8513;42.662;23.350;2023-04-07T00:09:07;10.43;;;8.53;;
16792;SDS011;8513;42.662;23.350;2023-04-07T00:11:33;10.07;;;8.23;;
16792;SDS011;8513;42.662;23.350;2023-04-07T00:13:59;8.97;;;8.07;;
16792;SDS011;8513;42.662;23.350;2023-04-07T00:16:24;8.43;;;7.63;;
16792;SDS011;8513;42.662;23.350;2023-04-07T00:18:50;9.10;;;8.20;;
16792;SDS011;8513;42.662;23.350;2023-04-07T00:21:15;8.83;;;8.03;;
16792;SDS011;8513;42.662;23.350;2023-04-07T00:23:41;8.67;;;7.87;;
16792;SDS011;8513;42.662;23.350;2023-04-07T00:26:06;8.93;;;8.07;;
16792;SDS011;8513;42.662;23.350;2023-04-07T00:28:32;10.00;;;8.13;;
16792;SDS011;8513;42.662;23.350;2023-04-07T00:30:57;8.77;;;7.80;;
16792;SDS011;8513;42.662;23.350;2023-04-07T00:33:23;9.33;;;7.80;;
16792;SDS011;8513;42.662;23.350;2023-04-07T00:35:48;9.87;;;8.07;;
16792;SDS011;8513;42.662;23.350;2023-04-07T00:38:14;9.10;;;8.00;;
16792;SDS011;8513;42.662;23.350;2023-04-07T00:40:39;8.47;;;7.67;;
16792;SDS011;8513;42.662;23.350;2023-04-07T00:43:05;8.67;;;7.87;;
16792;SDS011;8513;42.662;23.350;2023-04-07T00:45:30;9.40;;;8.40;;
16792;SDS011;8513;42.662;23.350;2023-04-07T00:47:56;9.73;;;7.90;;
16792;SDS011;8513;42.662;23.350;2023-04-07T00:50:22;9.33;;;8.10;;
16792;SDS011;8513;42.662;23.350;2023-04-07T00:52:48;8.77;;;7.87;;
16792;SDS011;8513;42.662;23.350;2023-04-07T00:55:14;8.97;;;8.07;;
16792;SDS011;8513;42.662;23.350;2023-04-07T00:57:40;8.57;;;7.47;;
16792;SDS011;8513;42.662;23.350;2023-04-07T01:00:06;8.67;;;7.77;;
16792;SDS011;8513;42.662;23.350;2023-04-07T01:08:20;9.43;;;7.80;;
16792;SDS011;8513;42.662;23.350;2023-04-07T01:13:22;7.87;;;7.17;;
16792;SDS011;8513;42.662;23.350;2023-04-07T01:15:54;10.43;;;7.57;;
16792;SDS011;8513;42.662;23.350;2023-04-07T01:18:31;9.60;;;7.93;;
16792;SDS011;8513;42.662;23.350;2023-04-07T01:21:02;8.97;;;7.70;;
16792;SDS011;8513;42.662;23.350;2023-04-07T01:26:35;8.33;;;7.53;;
16792;SDS011;8513;42.662;23.350;2023-04-07T01:31:53;8.43;;;7.50;;
16792;SDS011;8513;42.662;23.350;2023-04-07T01:34:21;7.87;;;7.00;;
16792;SDS011;8513;42.662;23.350;2023-04-07T01:36:49;7.77;;;7.00;;
16792;SDS011;8513;42.662;23.350;2023-04-07T01:39:16;8.63;;;7.73;;
16792;SDS011;8513;42.662;23.350;2023-04-07T01:41:42;8.17;;;7.47;;
16792;SDS011;8513;42.662;23.350;2023-04-07T01:44:09;7.97;;;7.27;;
16792;SDS011;8513;42.662;23.350;2023-04-07T01:46:35;8.83;;;7.33;;
16792;SDS011;8513;42.662;23.350;2023-04-07T01:49:01;7.67;;;6.97;;
16792;SDS011;8513;42.662;23.350;2023-04-07T01:51:28;8.47;;;7.67;;
16792;SDS011;8513;42.662;23.350;2023-04-07T01:53:55;15.27;;;13.67;;
16792;SDS011;8513;42.662;23.350;2023-04-07T01:56:21;17.57;;;14.53;;
16792;SDS011;8513;42.662;23.350;2023-04-07T01:58:46;15.90;;;14.30;;
16792;SDS011;8513;42.662;23.350;2023-04-07T02:01:12;16.47;;;14.77;;
16792;SDS011;8513;42.662;23.350;2023-04-07T02:06:33;17.70;;;15.07;;
16792;SDS011;8513;42.662;23.350;2023-04-07T02:09:03;17.63;;;15.90;;
16792;SDS011;8513;42.662;23.350;2023-04-07T02:11:32;16.33;;;14.63;;
16792;SDS011;8513;42.662;23.350;2023-04-07T02:14:00;16.77;;;15.07;;
16792;SDS011;8513;42.662;23.350;2023-04-07T02:16:31;16.20;;;14.23;;
16792;SDS011;8513;42.662;23.350;2023-04-07T02:18:57;18.87;;;15.03;;
16792;SDS011;8513;42.662;23.350;2023-04-07T02:21:24;16.80;;;15.17;;
16792;SDS011;8513;42.662;23.350;2023-04-07T02:23:51;16.43;;;14.60;;
16792;SDS011;8513;42.662;23.350;2023-04-07T02:26:16;17.57;;;14.83;;
16792;SDS011;8513;42.662;23.350;2023-04-07T02:28:41;17.03;;;15.23;;
16792;SDS011;8513;42.662;23.350;2023-04-07T02:31:07;16.37;;;14.67;;
16792;SDS011;8513;42.662;23.350;2023-04-07T02:33:33;16.50;;;14.50;;
16792;SDS011;8513;42.662;23.350;2023-04-07T02:35:58;16.27;;;14.57;;
16792;SDS011;8513;42.662;23.350;2023-04-07T02:38:23;16.47;;;14.20;;
16792;SDS011;8513;42.662;23.350;2023-04-07T02:40:49;17.67;;;14.37;;
16792;SDS011;8513;42.662;23.350;2023-04-07T02:43:15;17.00;;;15.30;;
16792;SDS011;8513;42.662;23.350;2023-04-07T02:45:41;17.60;;;15.73;;
16792;SDS011;8513;42.662;23.350;2023-04-07T02:48:07;17.07;;;15.37;;
16792;SDS011;8513;42.662;23.350;2023-04-07T02:50:32;17.47;;;15.73;;
16792;SDS011;8513;42.662;23.350;2023-04-07T02:52:58;16.93;;;14.50;;
16792;SDS011;8513;42.662;23.350;2023-04-07T02:55:23;16.97;;;14.43;;
16792;SDS011;8513;42.662;23.350;2023-04-07T02:57:49;16.33;;;14.63;;
16792;SDS011;8513;42.662;23.350;2023-04-07T03:00:14;16.37;;;14.13;;
16792;SDS011;8513;42.662;23.350;2023-04-07T03:02:40;17.60;;;15.63;;
16792;SDS011;8513;42.662;23.350;2023-04-07T03:05:05;15.57;;;14.00;;
16792;SDS011;8513;42.662;23.350;2023-04-07T03:07:31;15.20;;;13.70;;
16792;SDS011;8513;42.662;23.350;2023-04-07T03:09:57;16.00;;;14.40;;
16792;SDS011;8513;42.662;23.350;2023-04-07T03:12:22;16.60;;;14.03;;
16792;SDS011;8513;42.662;23.350;2023-04-07T03:14:48;16.87;;;14.20;;
16792;SDS011;8513;42.662;23.350;2023-04-07T03:17:13;15.60;;;14.03;;
16792;SDS011;8513;42.662;23.350;2023-04-07T03:19:39;15.43;;;13.93;;
16792;SDS011;8513;42.662;23.350;2023-04-07T03:22:05;16.73;;;14.17;;
16792;SDS011;8513;42.662;23.350;2023-04-07T03:24:30;14.30;;;12.90;;
16792;SDS011;8513;42.662;23.350;2023-04-07T03:26:56;14.50;;;13.10;;
16792;SDS011;8513;42.662;23.350;2023-04-07T03:29:21;12.23;;;11.03;;
16792;SDS011;8513;42.662;23.350;2023-04-07T03:31:47;9.70;;;8.77;;
16792;SDS011;8513;42.662;23.350;2023-04-07T03:34:12;9.33;;;7.73;;
16792;SDS011;8513;42.662;23.350;2023-04-07T03:36:38;7.50;;;6.80;;
16792;SDS011;8513;42.662;23.350;2023-04-07T03:39:03;7.80;;;7.00;;
16792;SDS011;8513;42.662;23.350;2023-04-07T03:41:29;7.27;;;5.80;;
16792;SDS011;8513;42.662;23.350;2023-04-07T03:43:54;8.13;;;6.70;;
16792;SDS011;8513;42.662;23.350;2023-04-07T03:46:20;7.40;;;6.70;;
16792;SDS011;8513;42.662;23.350;2023-04-07T03:48:49;7.80;;;7.00;;
16792;SDS011;8513;42.662;23.350;2023-04-07T03:51:15;8.27;;;6.73;;
16792;SDS011;8513;42.662;23.350;2023-04-07T03:53:41;8.07;;;7.10;;
16792;SDS011;8513;42.662;23.350;2023-04-07T03:56:06;7.17;;;6.47;;
16792;SDS011;8513;42.662;23.350;2023-04-07T03:58:32;9.37;;;6.30;;
16792;SDS011;8513;42.662;23.350;2023-04-07T04:00:57;6.90;;;6.20;;
16792;SDS011;8513;42.662;23.350;2023-04-07T04:03:23;8.00;;;6.70;;
16792;SDS011;8513;42.662;23.350;2023-04-07T04:05:48;7.63;;;6.73;;
16792;SDS011;8513;42.662;23.350;2023-04-07T04:08:14;7.30;;;6.60;;
16792;SDS011;8513;42.662;23.350;2023-04-07T04:10:39;9.10;;;6.60;;
16792;SDS011;8513;42.662;23.350;2023-04-07T04:13:05;7.07;;;6.37;;
16792;SDS011;8513;42.662;23.350;2023-04-07T04:15:32;8.27;;;6.73;;
16792;SDS011;8513;42.662;23.350;2023-04-07T04:17:57;8.63;;;7.30;;
16792;SDS011;8513;42.662;23.350;2023-04-07T04:20:22;11.43;;;8.47;;
16792;SDS011;8513;42.662;23.350;2023-04-07T04:22:48;15.37;;;13.33;;
16792;SDS011;8513;42.662;23.350;2023-04-07T04:25:15;18.10;;;13.73;;
16792;SDS011;8513;42.662;23.350;2023-04-07T04:27:41;17.97;;;14.50;;
16792;SDS011;8513;42.662;23.350;2023-04-07T04:30:06;18.90;;;14.93;;
16792;SDS011;8513;42.662;23.350;2023-04-07T04:32:32;16.93;;;15.23;;
16792;SDS011;8513;42.662;23.350;2023-04-07T04:34:58;17.77;;;15.97;;
16792;SDS011;8513;42.662;23.350;2023-04-07T04:37:24;18.30;;;15.03;;
16792;SDS011;8513;42.662;23.350;2023-04-07T04:39:49;18.63;;;15.70;;
16792;SDS011;8513;42.662;23.350;2023-04-07T04:42:15;17.50;;;15.73;;
16792;SDS011;8513;42.662;23.350;2023-04-07T04:44:40;17.27;;;15.47;;
16792;SDS011;8513;42.662;23.350;2023-04-07T04:47:06;18.03;;;15.87;;
16792;SDS011;8513;42.662;23.350;2023-04-07T04:49:31;20.90;;;15.33;;
16792;SDS011;8513;42.662;23.350;2023-04-07T04:51:57;16.53;;;14.50;;
16792;SDS011;8513;42.662;23.350;2023-04-07T04:54:22;17.40;;;15.00;;
16792;SDS011;8513;42.662;23.350;2023-04-07T04:56:48;17.63;;;15.77;;
16792;SDS011;8513;42.662;23.350;2023-04-07T04:59:13;18.43;;;16.57;;
16792;SDS011;8513;42.662;23.350;2023-04-07T05:01:39;18.27;;;16.37;;
16792;SDS011;8513;42.662;23.350;2023-04-07T05:04:04;17.80;;;14.50;;
16792;SDS011;8513;42.662;23.350;2023-04-07T05:06:30;19.60;;;14.23;;
16792;SDS011;8513;42.662;23.350;2023-04-07T05:08:55;16.83;;;14.10;;
16792;SDS011;8513;42.662;23.350;2023-04-07T05:11:21;16.20;;;13.73;;
16792;SDS011;8513;42.662;23.350;2023-04-07T05:13:46;18.80;;;15.30;;
16792;SDS011;8513;42.662;23.350;2023-04-07T05:16:12;17.03;;;14.07;;
16792;SDS011;8513;42.662;23.350;2023-04-07T05:18:37;16.63;;;13.40;;
16792;SDS011;8513;42.662;23.350;2023-04-07T05:21:03;16.43;;;12.83;;
16792;SDS011;8513;42.662;23.350;2023-04-07T05:23:28;17.43;;;13.73;;
16792;SDS011;8513;42.662;23.350;2023-04-07T05:25:54;14.50;;;12.80;;
16792;SDS011;8513;42.662;23.350;2023-04-07T05:28:19;15.47;;;13.03;;
16792;SDS011;8513;42.662;23.350;2023-04-07T05:30:45;15.37;;;12.67;;
16792;SDS011;8513;42.662;23.350;2023-04-07T05:33:10;19.43;;;12.60;;
16792;SDS011;8513;42.662;23.350;2023-04-07T05:35:36;17.90;;;12.80;;
16792;SDS011;8513;42.662;23.350;2023-04-07T05:38:01;15.73;;;13.17;;
16792;SDS011;8513;42.662;23.350;2023-04-07T05:40:27;14.23;;;12.80;;
16792;SDS011;8513;42.662;23.350;2023-04-07T05:42:54;13.93;;;12.57;;
16792;SDS011;8513;42.662;23.350;2023-04-07T05:45:20;14.47;;;12.83;;
16792;SDS011;8513;42.662;23.350;2023-04-07T05:47:45;15.60;;;13.60;;
16792;SDS011;8513;42.662;23.350;2023-04-07T05:50:14;17.67;;;13.80;;
16792;SDS011;8513;42.662;23.350;2023-04-07T05:52:40;17.60;;;14.10;;
16792;SDS011;8513;42.662;23.350;2023-04-07T05:55:05;17.23;;;13.80;;
16792;SDS011;8513;42.662;23.350;2023-04-07T05:57:31;17.93;;;13.97;;
16792;SDS011;8513;42.662;23.350;2023-04-07T05:59:57;17.23;;;15.00;;
16792;SDS011;8513;42.662;23.350;2023-04-07T06:02:22;18.07;;;14.83;;
16792;SDS011;8513;42.662;23.350;2023-04-07T06:04:48;15.20;;;13.47;;
16792;SDS011;8513;42.662;23.350;2023-04-07T06:07:13;19.97;;;13.67;;
16792;SDS011;8513;42.662;23.350;2023-04-07T06:09:39;17.10;;;13.90;;
16792;SDS011;8513;42.662;23.350;2023-04-07T06:12:06;17.87;;;14.33;;
16792;SDS011;8513;42.662;23.350;2023-04-07T06:14:33;18.17;;;14.03;;
16792;SDS011;8513;42.662;23.350;2023-04-07T06:16:59;16.37;;;12.90;;
16792;SDS011;8513;42.662;23.350;2023-04-07T06:19:24;19.13;;;12.90;;
16792;SDS011;8513;42.662;23.350;2023-04-07T06:21:51;15.13;;;12.90;;
16792;SDS011;8513;42.662;23.350;2023-04-07T06:24:17;16.00;;;12.33;;
16792;SDS011;8513;42.662;23.350;2023-04-07T06:26:42;15.30;;;12.50;;
16792;SDS011;8513;42.662;23.350;2023-04-07T06:29:08;13.60;;;11.70;;
16792;SDS011;8513;42.662;23.350;2023-04-07T06:31:34;16.00;;;12.57;;
16792;SDS011;8513;42.662;23.350;2023-04-07T06:34:00;15.47;;;12.73;;
16792;SDS011;8513;42.662;23.350;2023-04-07T06:36:26;17.17;;;11.77;;
16792;SDS011;8513;42.662;23.350;2023-04-07T06:38:51;17.30;;;11.80;;
16792;SDS011;8513;42.662;23.350;2023-04-07T06:41:17;12.97;;;11.27;;
16792;SDS011;8513;42.662;23.350;2023-04-07T06:43:43;19.80;;;12.93;;
16792;SDS011;8513;42.662;23.350;2023-04-07T06:46:10;12.83;;;11.50;;
16792;SDS011;8513;42.662;23.350;2023-04-07T06:48:36;12.60;;;11.30;;
16792;SDS011;8513;42.662;23.350;2023-04-07T06:51:01;14.40;;;11.47;;
16792;SDS011;8513;42.662;23.350;2023-04-07T06:53:27;14.40;;;11.23;;
16792;SDS011;8513;42.662;23.350;2023-04-07T06:56:05;12.17;;;9.90;;
16792;SDS011;8513;42.662;23.350;2023-04-07T06:58:32;12.30;;;10.67;;
16792;SDS011;8513;42.662;23.350;2023-04-07T07:00:59;16.63;;;11.80;;
16792;SDS011;8513;42.662;23.350;2023-04-07T07:03:24;14.03;;;12.00;;
16792;SDS011;8513;42.662;23.350;2023-04-07T07:05:52;16.97;;;12.27;;
16792;SDS011;8513;42.662;23.350;2023-04-07T07:08:18;16.30;;;11.97;;
16792;SDS011;8513;42.662;23.350;2023-04-07T07:10:44;15.67;;;12.17;;
16792;SDS011;8513;42.662;23.350;2023-04-07T07:13:09;14.43;;;11.07;;
16792;SDS011;8513;42.662;23.350;2023-04-07T07:15:35;9.47;;;8.53;;
16792;SDS011;8513;42.662;23.350;2023-04-07T07:18:00;18.17;;;6.47;;
16792;SDS011;8513;42.662;23.350;2023-04-07T07:20:26;7.67;;;5.80;;
16792;SDS011;8513;42.662;23.350;2023-04-07T07:22:51;6.77;;;5.63;;
16792;SDS011;8513;42.662;23.350;2023-04-07T07:25:17;8.07;;;5.67;;
16792;SDS011;8513;42.662;23.350;2023-04-07T07:27:42;7.37;;;6.30;;
16792;SDS011;8513;42.662;23.350;2023-04-07T07:30:08;6.50;;;5.70;;
16792;SDS011;8513;42.662;23.350;2023-04-07T07:32:33;7.97;;;5.70;;
16792;SDS011;8513;42.662;23.350;2023-04-07T07:34:59;8.00;;;5.53;;
16792;SDS011;8513;42.662;23.350;2023-04-07T07:37:24;6.77;;;5.40;;
16792;SDS011;8513;42.662;23.350;2023-04-07T07:39:50;8.00;;;5.23;;
16792;SDS011;8513;42.662;23.350;2023-04-07T07:42:15;7.20;;;5.40;;
16792;SDS011;8513;42.662;23.350;2023-04-07T07:44:41;7.93;;;5.17;;
16792;SDS011;8513;42.662;23.350;2023-04-07T07:47:06;9.03;;;5.70;;
16792;SDS011;8513;42.662;23.350;2023-04-07T07:49:32;6.20;;;5.60;;
16792;SDS011;8513;42.662;23.350;2023-04-07T07:51:57;6.70;;;5.20;;
16792;SDS011;8513;42.662;23.350;2023-04-07T07:54:23;6.33;;;5.43;;
16792;SDS011;8513;42.662;23.350;2023-04-07T07:56:49;7.20;;;5.50;;
16792;SDS011;8513;42.662;23.350;2023-04-07T07:59:15;6.40;;;5.43;;
16792;SDS011;8513;42.662;23.350;2023-04-07T08:01:40;6.13;;;5.00;;
16792;SDS011;8513;42.662;23.350;2023-04-07T08:04:06;7.70;;;5.37;;
16792;SDS011;8513;42.662;23.350;2023-04-07T08:06:31;6.73;;;4.93;;
16792;SDS011;8513;42.662;23.350;2023-04-07T08:08:57;5.30;;;4.80;;
16792;SDS011;8513;42.662;23.350;2023-04-07T08:11:22;7.03;;;5.10;;
16792;SDS011;8513;42.662;23.350;2023-04-07T08:13:48;6.77;;;4.87;;
16792;SDS011;8513;42.662;23.350;2023-04-07T08:16:13;6.27;;;4.77;;
16792;SDS011;8513;42.662;23.350;2023-04-07T08:18:39;5.37;;;4.37;;
16792;SDS011;8513;42.662;23.350;2023-04-07T08:21:05;7.43;;;5.07;;
16792;SDS011;8513;42.662;23.350;2023-04-07T08:23:31;5.53;;;4.60;;
16792;SDS011;8513;42.662;23.350;2023-04-07T08:25:56;6.37;;;4.60;;
16792;SDS011;8513;42.662;23.350;2023-04-07T08:28:25;5.90;;;4.93;;
16792;SDS011;8513;42.662;23.350;2023-04-07T08:30:50;5.40;;;4.30;;
16792;SDS011;8513;42.662;23.350;2023-04-07T08:33:16;5.20;;;4.70;;
16792;SDS011;8513;42.662;23.350;2023-04-07T08:35:41;6.43;;;4.93;;
16792;SDS011;8513;42.662;23.350;2023-04-07T08:38:07;6.27;;;4.60;;
16792;SDS011;8513;42.662;23.350;2023-04-07T08:40:33;6.70;;;5.10;;
16792;SDS011;8513;42.662;23.350;2023-04-07T08:42:59;5.17;;;4.67;;
16792;SDS011;8513;42.662;23.350;2023-04-07T08:45:27;6.60;;;4.97;;
16792;SDS011;8513;42.662;23.350;2023-04-07T08:47:55;5.10;;;4.60;;
16792;SDS011;8513;42.662;23.350;2023-04-07T08:50:25;5.27;;;4.73;;
16792;SDS011;8513;42.662;23.350;2023-04-07T08:52:55;6.07;;;5.43;;
16792;SDS011;8513;42.662;23.350;2023-04-07T08:55:24;5.70;;;4.90;;
16792;SDS011;8513;42.662;23.350;2023-04-07T08:57:50;7.43;;;5.57;;
16792;SDS011;8513;42.662;23.350;2023-04-07T09:00:16;5.87;;;4.60;;
16792;SDS011;8513;42.662;23.350;2023-04-07T09:02:42;4.60;;;4.10;;
16792;SDS011;8513;42.662;23.350;2023-04-07T09:05:09;5.63;;;4.40;;
16792;SDS011;8513;42.662;23.350;2023-04-07T09:07:37;5.00;;;4.17;;
16792;SDS011;8513;42.662;23.350;2023-04-07T09:10:04;7.57;;;5.50;;
16792;SDS011;8513;42.662;23.350;2023-04-07T09:12:30;5.13;;;4.50;;
16792;SDS011;8513;42.662;23.350;2023-04-07T09:14:57;4.73;;;4.33;;
16792;SDS011;8513;42.662;23.350;2023-04-07T09:17:24;5.97;;;4.87;;
16792;SDS011;8513;42.662;23.350;2023-04-07T09:19:57;7.10;;;4.80;;
16792;SDS011;8513;42.662;23.350;2023-04-07T09:22:44;5.73;;;4.80;;
16792;SDS011;8513;42.662;23.350;2023-04-07T09:25:17;5.93;;;4.33;;
16792;SDS011;8513;42.662;23.350;2023-04-07T09:27:57;5.97;;;5.30;;
16792;SDS011;8513;42.662;23.350;2023-04-07T09:30:24;6.50;;;5.10;;
16792;SDS011;8513;42.662;23.350;2023-04-07T09:32:50;5.57;;;4.90;;
16792;SDS011;8513;42.662;23.350;2023-04-07T09:35:16;6.30;;;5.00;;
16792;SDS011;8513;42.662;23.350;2023-04-07T09:37:41;6.47;;;4.33;;
16792;SDS011;8513;42.662;23.350;2023-04-07T09:40:07;6.70;;;4.77;;
16792;SDS011;8513;42.662;23.350;2023-04-07T09:42:33;9.60;;;5.20;;
16792;SDS011;8513;42.662;23.350;2023-04-07T09:45:01;8.93;;;5.27;;
16792;SDS011;8513;42.662;23.350;2023-04-07T09:47:27;5.53;;;5.03;;
16792;SDS011;8513;42.662;23.350;2023-04-07T09:49:54;6.70;;;5.47;;
16792;SDS011;8513;42.662;23.350;2023-04-07T09:55:20;6.23;;;5.63;;
16792;SDS011;8513;42.662;23.350;2023-04-07T09:57:50;6.17;;;5.57;;
16792;SDS011;8513;42.662;23.350;2023-04-07T10:00:16;5.93;;;5.40;;
16792;SDS011;8513;42.662;23.350;2023-04-07T10:02:42;7.13;;;5.57;;
16792;SDS011;8513;42.662;23.350;2023-04-07T10:05:08;6.13;;;5.53;;
16792;SDS011;8513;42.662;23.350;2023-04-07T10:07:35;10.23;;;5.57;;
16792;SDS011;8513;42.662;23.350;2023-04-07T10:10:01;5.90;;;5.40;;
16792;SDS011;8513;42.662;23.350;2023-04-07T10:12:27;7.53;;;6.20;;
16792;SDS011;8513;42.662;23.350;2023-04-07T10:14:56;7.57;;;5.23;;
16792;SDS011;8513;42.662;23.350;2023-04-07T10:17:24;6.17;;;5.30;;
16792;SDS011;8513;42.662;23.350;2023-04-07T10:19:50;7.67;;;5.37;;
16792;SDS011;8513;42.662;23.350;2023-04-07T10:22:17;6.17;;;5.03;;
16792;SDS011;8513;42.662;23.350;2023-04-07T10:27:18;6.70;;;5.23;;
16792;SDS011;8513;42.662;23.350;2023-04-07T10:29:51;6.57;;;5.43;;
16792;SDS011;8513;42.662;23.350;2023-04-07T10:32:18;6.67;;;6.07;;
16792;SDS011;8513;42.662;23.350;2023-04-07T10:37:13;7.60;;;5.80;;
16792;SDS011;8513;42.662;23.350;2023-04-07T10:39:42;6.00;;;5.40;;
16792;SDS011;8513;42.662;23.350;2023-04-07T10:42:43;9.67;;;5.80;;
16792;SDS011;8513;42.662;23.350;2023-04-07T10:45:02;6.97;;;5.60;;
16792;SDS011;8513;42.662;23.350;2023-04-07T10:47:28;6.97;;;5.73;;
16792;SDS011;8513;42.662;23.350;2023-04-07T10:52:39;5.97;;;5.47;;
16792;SDS011;8513;42.662;23.350;2023-04-07T11:03:24;7.73;;;6.10;;
16792;SDS011;8513;42.662;23.350;2023-04-07T11:05:50;6.83;;;6.20;;
16792;SDS011;8513;42.662;23.350;2023-04-07T11:08:35;6.83;;;6.17;;
16792;SDS011;8513;42.662;23.350;2023-04-07T11:11:01;6.40;;;5.80;;
16792;SDS011;8513;42.662;23.350;2023-04-07T11:13:38;7.10;;;5.73;;
16792;SDS011;8513;42.662;23.350;2023-04-07T11:16:07;6.53;;;5.90;;
16792;SDS011;8513;42.662;23.350;2023-04-07T11:18:33;9.17;;;6.67;;
16792;SDS011;8513;42.662;23.350;2023-04-07T11:21:00;7.37;;;6.23;;
16792;SDS011;8513;42.662;23.350;2023-04-07T11:23:27;7.57;;;6.77;;
16792;SDS011;8513;42.662;23.350;2023-04-07T11:26:02;7.70;;;6.30;;
16792;SDS011;8513;42.662;23.350;2023-04-07T11:28:28;7.47;;;6.20;;
16792;SDS011;8513;42.662;23.350;2023-04-07T11:30:55;6.63;;;5.93;;
16792;SDS011;8513;42.662;23.350;2023-04-07T11:33:30;8.27;;;6.30;;
16792;SDS011;8513;42.662;23.350;2023-04-07T11:35:59;6.60;;;6.00;;
16792;SDS011;8513;42.662;23.350;2023-04-07T11:38:27;6.53;;;5.83;;
16792;SDS011;8513;42.662;23.350;2023-04-07T11:40:54;7.40;;;6.63;;
16792;SDS011;8513;42.662;23.350;2023-04-07T11:43:21;6.30;;;5.70;;
16792;SDS011;8513;42.662;23.350;2023-04-07T11:46:07;6.70;;;6.17;;
16792;SDS011;8513;42.662;23.350;2023-04-07T11:48:35;6.77;;;6.13;;
16792;SDS011;8513;42.662;23.350;2023-04-07T11:51:02;7.73;;;6.93;;
16792;SDS011;8513;42.662;23.350;2023-04-07T11:53:31;9.83;;;6.43;;
16792;SDS011;8513;42.662;23.350;2023-04-07T11:56:07;7.53;;;6.60;;
16792;SDS011;8513;42.662;23.350;2023-04-07T11:58:34;6.93;;;6.33;;
16792;SDS011;8513;42.662;23.350;2023-04-07T12:01:04;7.57;;;6.57;;
16792;SDS011;8513;42.662;23.350;2023-04-07T12:03:33;8.23;;;6.77;;
16792;SDS011;8513;42.662;23.350;2023-04-07T12:06:01;7.20;;;6.60;;
16792;SDS011;8513;42.662;23.350;2023-04-07T12:08:40;8.70;;;6.80;;
16792;SDS011;8513;42.662;23.350;2023-04-07T12:11:07;7.87;;;7.07;;
16792;SDS011;8513;42.662;23.350;2023-04-07T12:13:34;7.73;;;6.67;;
16792;SDS011;8513;42.662;23.350;2023-04-07T12:16:01;9.52;;;6.85;;
16792;SDS011;8513;42.662;23.350;2023-04-07T12:18:27;7.60;;;6.90;;
16792;SDS011;8513;42.662;23.350;2023-04-07T12:20:53;6.90;;;6.20;;
16792;SDS011;8513;42.662;23.350;2023-04-07T12:23:20;8.10;;;6.90;;
16792;SDS011;8513;42.662;23.350;2023-04-07T12:25:46;7.82;;;7.03;;
16792;SDS011;8513;42.662;23.350;2023-04-07T12:28:12;6.38;;;5.78;;
16792;SDS011;8513;42.662;23.350;2023-04-07T12:30:37;7.72;;;6.63;;
16792;SDS011;8513;42.662;23.350;2023-04-07T12:33:02;7.13;;;6.43;;
16792;SDS011;8513;42.662;23.350;2023-04-07T12:35:28;7.57;;;6.88;;
16792;SDS011;8513;42.662;23.350;2023-04-07T12:37:54;7.20;;;6.53;;
16792;SDS011;8513;42.662;23.350;2023-04-07T12:40:21;7.85;;;6.35;;
16792;SDS011;8513;42.662;23.350;2023-04-07T12:42:47;11.40;;;6.85;;
16792;SDS011;8513;42.662;23.350;2023-04-07T12:45:13;8.63;;;7.20;;
16792;SDS011;8513;42.662;23.350;2023-04-07T12:47:38;7.47;;;6.77;;
16792;SDS011;8513;42.662;23.350;2023-04-07T12:50:04;8.80;;;7.65;;
16792;SDS011;8513;42.662;23.350;2023-04-07T12:52:29;7.32;;;6.63;;
16792;SDS011;8513;42.662;23.350;2023-04-07T12:54:56;7.85;;;7.05;;
16792;SDS011;8513;42.662;23.350;2023-04-07T12:57:22;7.30;;;6.22;;
16792;SDS011;8513;42.662;23.350;2023-04-07T12:59:48;7.47;;;6.77;;
16792;SDS011;8513;42.662;23.350;2023-04-07T13:02:13;7.73;;;7.00;;
16792;SDS011;8513;42.662;23.350;2023-04-07T13:04:41;7.63;;;6.93;;
16792;SDS011;8513;42.662;23.350;2023-04-07T13:07:10;8.60;;;7.70;;
16792;SDS011;8513;42.662;23.350;2023-04-07T13:09:39;8.53;;;7.03;;
16792;SDS011;8513;42.662;23.350;2023-04-07T13:12:10;9.45;;;7.40;;
16792;SDS011;8513;42.662;23.350;2023-04-07T13:14:39;8.13;;;6.70;;
16792;SDS011;8513;42.662;23.350;2023-04-07T13:17:06;8.40;;;7.50;;
16792;SDS011;8513;42.662;23.350;2023-04-07T13:19:32;8.17;;;7.37;;
16792;SDS011;8513;42.662;23.350;2023-04-07T13:21:57;7.67;;;6.90;;
16792;SDS011;8513;42.662;23.350;2023-04-07T13:24:23;8.70;;;7.90;;
16792;SDS011;8513;42.662;23.350;2023-04-07T13:26:49;8.93;;;7.67;;
16792;SDS011;8513;42.662;23.350;2023-04-07T13:29:15;8.37;;;6.83;;
16792;SDS011;8513;42.662;23.350;2023-04-07T13:31:41;8.00;;;7.20;;
16792;SDS011;8513;42.662;23.350;2023-04-07T13:34:06;8.47;;;7.57;;
16792;SDS011;8513;42.662;23.350;2023-04-07T13:36:32;7.87;;;7.17;;
16792;SDS011;8513;42.662;23.350;2023-04-07T13:38:58;11.07;;;7.30;;
16792;SDS011;8513;42.662;23.350;2023-04-07T13:41:23;7.87;;;7.07;;
16792;SDS011;8513;42.662;23.350;2023-04-07T13:43:50;8.53;;;7.50;;
16792;SDS011;8513;42.662;23.350;2023-04-07T13:46:15;9.13;;;7.77;;
16792;SDS011;8513;42.662;23.350;2023-04-07T13:48:43;10.20;;;7.23;;
16792;SDS011;8513;42.662;23.350;2023-04-07T13:51:11;7.47;;;6.60;;
16792;SDS011;8513;42.662;23.350;2023-04-07T13:53:37;7.17;;;6.47;;
16792;SDS011;8513;42.662;23.350;2023-04-07T13:56:02;7.60;;;6.90;;
16792;SDS011;8513;42.662;23.350;2023-04-07T13:58:30;8.30;;;6.73;;
16792;SDS011;8513;42.662;23.350;2023-04-07T14:00:55;7.37;;;6.67;;
16792;SDS011;8513;42.662;23.350;2023-04-07T14:03:21;7.70;;;7.00;;
16792;SDS011;8513;42.662;23.350;2023-04-07T14:05:46;8.90;;;7.33;;
16792;SDS011;8513;42.662;23.350;2023-04-07T14:08:12;8.07;;;6.30;;
16792;SDS011;8513;42.662;23.350;2023-04-07T14:10:38;7.53;;;6.93;;
16792;SDS011;8513;42.662;23.350;2023-04-07T14:13:04;9.27;;;7.13;;
16792;SDS011;8513;42.662;23.350;2023-04-07T14:15:29;7.93;;;7.13;;
16792;SDS011;8513;42.662;23.350;2023-04-07T14:17:55;7.87;;;6.63;;
16792;SDS011;8513;42.662;23.350;2023-04-07T14:20:20;7.23;;;6.37;;
16792;SDS011;8513;42.662;23.350;2023-04-07T14:22:46;7.23;;;6.53;;
16792;SDS011;8513;42.662;23.350;2023-04-07T14:25:11;8.80;;;7.20;;
16792;SDS011;8513;42.662;23.350;2023-04-07T14:27:37;9.40;;;7.40;;
16792;SDS011;8513;42.662;23.350;2023-04-07T14:30:02;9.03;;;7.53;;
16792;SDS011;8513;42.662;23.350;2023-04-07T14:32:28;8.13;;;7.33;;
16792;SDS011;8513;42.662;23.350;2023-04-07T14:34:54;9.17;;;6.93;;
16792;SDS011;8513;42.662;23.350;2023-04-07T14:37:20;7.70;;;6.90;;
16792;SDS011;8513;42.662;23.350;2023-04-07T14:39:50;7.93;;;6.53;;
16792;SDS011;8513;42.662;23.350;2023-04-07T14:42:16;8.50;;;7.30;;
16792;SDS011;8513;42.662;23.350;2023-04-07T14:44:42;8.83;;;7.53;;
16792;SDS011;8513;42.662;23.350;2023-04-07T14:47:07;8.37;;;7.37;;
16792;SDS011;8513;42.662;23.350;2023-04-07T14:49:33;8.33;;;7.33;;
16792;SDS011;8513;42.662;23.350;2023-04-07T14:51:58;7.67;;;6.90;;
16792;SDS011;8513;42.662;23.350;2023-04-07T14:54:24;8.73;;;7.80;;
16792;SDS011;8513;42.662;23.350;2023-04-07T14:56:49;8.43;;;6.93;;
16792;SDS011;8513;42.662;23.350;2023-04-07T14:59:15;10.63;;;7.90;;
16792;SDS011;8513;42.662;23.350;2023-04-07T15:01:40;8.47;;;7.57;;
16792;SDS011;8513;42.662;23.350;2023-04-07T15:04:06;9.83;;;7.40;;
16792;SDS011;8513;42.662;23.350;2023-04-07T15:06:31;8.60;;;7.67;;
16792;SDS011;8513;42.662;23.350;2023-04-07T15:08:57;10.03;;;8.97;;
16792;SDS011;8513;42.662;23.350;2023-04-07T15:11:22;8.97;;;7.97;;